sensor_id;sensor_type;location;lat;lon;timestamp;temperature;humidity
74488;DHT22;63019;51.080;13.642;2023-01-08T00:00:32;5.00;99.90
74488;DHT22;63019;51.080;13.642;2023-01-08T00:01:34;5.00;99.90
74488;DHT22;63019;51.080;13.642;2023-01-08T00:02:36;5.00;99.90
74488;DHT22;63019;51.080;13.642;2023-01-08T00:03:38;5.00;99.90
74488;DHT22;63019;51.080;13.642;2023-01-08T00:04:40;5.00;99.90
74488;DHT22;63019;51.080;13.642;2023-01-08T00:05:42;5.00;99.90
74488;DHT22;63019;51.080;13.642;2023-01-08T00:06:44;5.00;99.90
74488;DHT22;63019;51.080;13.642;2023-01-08T00:07:46;5.10;99.90
74488;DHT22;63019;51.080;13.642;2023-01-08T00:08:48;5.10;99.90
74488;DHT22;63019;51.080;13.642;2023-01-08T00:09:49;5.10;99.90
74488;DHT22;63019;51.080;13.642;2023-01-08T00:10:53;5.00;99.90
74488;DHT22;63019;51.080;13.642;2023-01-08T00:11:56;5.00;99.90
74488;DHT22;63019;51.080;13.642;2023-01-08T00:12:58;5.00;99.90
74488;DHT22;63019;51.080;13.642;2023-01-08T00:13:59;5.00;99.90
74488;DHT22;63019;51.080;13.642;2023-01-08T00:15:02;5.00;99.90
74488;DHT22;63019;51.080;13.642;2023-01-08T00:16:06;5.00;99.90
74488;DHT22;63019;51.080;13.642;2023-01-08T00:17:08;5.00;99.90
74488;DHT22;63019;51.080;13.642;2023-01-08T00:18:10;5.10;99.90
74488;DHT22;63019;51.080;13.642;2023-01-08T00:19:12;5.10;99.90
74488;DHT22;63019;51.080;13.642;2023-01-08T00:20:14;5.10;99.90
74488;DHT22;63019;51.080;13.642;2023-01-08T00:21:15;5.10;99.90
74488;DHT22;63019;51.080;13.642;2023-01-08T00:22:17;5.10;99.90
74488;DHT22;63019;51.080;13.642;2023-01-08T00:23:19;5.00;99.90
74488;DHT22;63019;51.080;13.642;2023-01-08T00:24:21;5.00;99.90
74488;DHT22;63019;51.080;13.642;2023-01-08T00:25:23;5.00;99.90
74488;DHT22;63019;51.080;13.642;2023-01-08T00:26:25;5.00;99.90
74488;DHT22;63019;51.080;13.642;2023-01-08T00:27:26;5.00;99.90
74488;DHT22;63019;51.080;13.642;2023-01-08T00:28:28;5.00;99.90
74488;DHT22;63019;51.080;13.642;2023-01-08T00:29:30;5.00;99.90
74488;DHT22;63019;51.080;13.642;2023-01-08T00:30:32;5.00;99.90
74488;DHT22;63019;51.080;13.642;2023-01-08T00:31:34;5.00;99.90
74488;DHT22;63019;51.080;13.642;2023-01-08T00:32:36;5.00;99.90
74488;DHT22;63019;51.080;13.642;2023-01-08T00:33:39;5.00;99.90
74488;DHT22;63019;51.080;13.642;2023-01-08T00:34:41;5.00;99.90
74488;DHT22;63019;51.080;13.642;2023-01-08T00:35:43;5.00;99.90
74488;DHT22;63019;51.080;13.642;2023-01-08T00:36:44;5.00;99.90
74488;DHT22;63019;51.080;13.642;2023-01-08T00:37:49;5.00;99.90
74488;DHT22;63019;51.080;13.642;2023-01-08T00:38:51;5.00;99.90
74488;DHT22;63019;51.080;13.642;2023-01-08T00:39:53;5.00;99.90
74488;DHT22;63019;51.080;13.642;2023-01-08T00:40:55;5.00;99.90
74488;DHT22;63019;51.080;13.642;2023-01-08T00:41:57;5.00;99.90
74488;DHT22;63019;51.080;13.642;2023-01-08T00:42:59;5.00;99.90
74488;DHT22;63019;51.080;13.642;2023-01-08T00:44:00;5.00;99.90
74488;DHT22;63019;51.080;13.642;2023-01-08T00:45:02;5.00;99.90
74488;DHT22;63019;51.080;13.642;2023-01-08T00:46:04;5.00;99.90
74488;DHT22;63019;51.080;13.642;2023-01-08T00:47:06;5.00;99.90
74488;DHT22;63019;51.080;13.642;2023-01-08T00:48:09;5.00;99.90
74488;DHT22;63019;51.080;13.642;2023-01-08T00:49:11;5.00;99.90
74488;DHT22;63019;51.080;13.642;2023-01-08T00:50:13;5.00;99.90
74488;DHT22;63019;51.080;13.642;2023-01-08T00:51:14;5.00;99.90
74488;DHT22;63019;51.080;13.642;2023-01-08T00:52:16;5.00;99.90
74488;DHT22;63019;51.080;13.642;2023-01-08T00:53:19;5.00;99.90
74488;DHT22;63019;51.080;13.642;2023-01-08T00:54:21;5.00;99.90
74488;DHT22;63019;51.080;13.642;2023-01-08T00:55:23;5.00;99.90
74488;DHT22;63019;51.080;13.642;2023-01-08T00:56:25;4.90;99.90
74488;DHT22;63019;51.080;13.642;2023-01-08T00:57:34;5.00;99.90
74488;DHT22;63019;51.080;13.642;2023-01-08T00:58:36;4.90;99.90
74488;DHT22;63019;51.080;13.642;2023-01-08T00:59:38;4.90;99.90
74488;DHT22;63019;51.080;13.642;2023-01-08T01:00:40;5.00;99.90
74488;DHT22;63019;51.080;13.642;2023-01-08T01:01:42;4.90;99.90
74488;DHT22;63019;51.080;13.642;2023-01-08T01:02:44;4.90;99.90
74488;DHT22;63019;51.080;13.642;2023-01-08T01:03:50;4.90;99.90
74488;DHT22;63019;51.080;13.642;2023-01-08T01:04:52;4.90;99.90
74488;DHT22;63019;51.080;13.642;2023-01-08T01:06:02;5.00;99.90
74488;DHT22;63019;51.080;13.642;2023-01-08T01:07:04;5.00;99.90
74488;DHT22;63019;51.080;13.642;2023-01-08T01:08:06;5.00;99.90
74488;DHT22;63019;51.080;13.642;2023-01-08T01:09:08;5.00;99.90
74488;DHT22;63019;51.080;13.642;2023-01-08T01:10:11;5.00;99.90
74488;DHT22;63019;51.080;13.642;2023-01-08T01:11:25;4.90;99.90
74488;DHT22;63019;51.080;13.642;2023-01-08T01:12:27;4.90;99.90
74488;DHT22;63019;51.080;13.642;2023-01-08T01:13:29;4.90;99.90
74488;DHT22;63019;51.080;13.642;2023-01-08T01:14:30;4.90;99.90
74488;DHT22;63019;51.080;13.642;2023-01-08T01:15:32;4.90;99.90
74488;DHT22;63019;51.080;13.642;2023-01-08T01:16:34;4.90;99.90
74488;DHT22;63019;51.080;13.642;2023-01-08T01:17:38;4.90;99.90
74488;DHT22;63019;51.080;13.642;2023-01-08T01:18:40;4.90;99.90
74488;DHT22;63019;51.080;13.642;2023-01-08T01:19:42;4.90;99.90
74488;DHT22;63019;51.080;13.642;2023-01-08T01:20:44;4.90;99.90
74488;DHT22;63019;51.080;13.642;2023-01-08T01:21:46;4.90;99.90
74488;DHT22;63019;51.080;13.642;2023-01-08T01:22:48;4.90;99.90
74488;DHT22;63019;51.080;13.642;2023-01-08T01:23:53;4.90;99.90
74488;DHT22;63019;51.080;13.642;2023-01-08T01:24:55;4.90;99.90
74488;DHT22;63019;51.080;13.642;2023-01-08T01:25:57;4.90;99.90
74488;DHT22;63019;51.080;13.642;2023-01-08T01:26:59;4.90;99.90
74488;DHT22;63019;51.080;13.642;2023-01-08T01:28:01;4.90;99.90
74488;DHT22;63019;51.080;13.642;2023-01-08T01:29:03;4.90;99.90
74488;DHT22;63019;51.080;13.642;2023-01-08T01:30:06;4.90;99.90
74488;DHT22;63019;51.080;13.642;2023-01-08T01:31:10;4.90;99.90
74488;DHT22;63019;51.080;13.642;2023-01-08T01:32:13;4.90;99.90
74488;DHT22;63019;51.080;13.642;2023-01-08T01:33:15;4.90;99.90
74488;DHT22;63019;51.080;13.642;2023-01-08T01:34:17;4.90;99.90
74488;DHT22;63019;51.080;13.642;2023-01-08T01:35:19;4.90;99.90
74488;DHT22;63019;51.080;13.642;2023-01-08T01:36:21;4.80;99.90
74488;DHT22;63019;51.080;13.642;2023-01-08T01:37:26;4.90;99.90
74488;DHT22;63019;51.080;13.642;2023-01-08T01:38:28;4.90;99.90
74488;DHT22;63019;51.080;13.642;2023-01-08T01:39:30;4.90;99.90
74488;DHT22;63019;51.080;13.642;2023-01-08T01:40:32;4.90;99.90
74488;DHT22;63019;51.080;13.642;2023-01-08T01:41:43;4.90;99.90
74488;DHT22;63019;51.080;13.642;2023-01-08T01:42:45;4.90;99.90
74488;DHT22;63019;51.080;13.642;2023-01-08T01:43:47;4.90;99.90
74488;DHT22;63019;51.080;13.642;2023-01-08T01:44:48;4.90;99.90
74488;DHT22;63019;51.080;13.642;2023-01-08T01:45:50;4.90;99.90
74488;DHT22;63019;51.080;13.642;2023-01-08T01:46:52;4.80;99.90
74488;DHT22;63019;51.080;13.642;2023-01-08T01:48:05;4.90;99.90
74488;DHT22;63019;51.080;13.642;2023-01-08T01:49:11;4.80;99.90
74488;DHT22;63019;51.080;13.642;2023-01-08T01:50:17;4.80;99.90
74488;DHT22;63019;51.080;13.642;2023-01-08T01:51:20;4.80;99.90
74488;DHT22;63019;51.080;13.642;2023-01-08T01:52:24;4.80;99.90
74488;DHT22;63019;51.080;13.642;2023-01-08T01:53:26;4.80;99.90
74488;DHT22;63019;51.080;13.642;2023-01-08T01:54:30;4.90;99.90
74488;DHT22;63019;51.080;13.642;2023-01-08T01:55:33;4.90;99.90
74488;DHT22;63019;51.080;13.642;2023-01-08T01:56:36;4.90;99.90
74488;DHT22;63019;51.080;13.642;2023-01-08T01:57:38;4.90;99.90
74488;DHT22;63019;51.080;13.642;2023-01-08T01:58:40;4.90;99.90
74488;DHT22;63019;51.080;13.642;2023-01-08T01:59:42;4.90;99.90
74488;DHT22;63019;51.080;13.642;2023-01-08T02:00:45;4.90;99.90
74488;DHT22;63019;51.080;13.642;2023-01-08T02:01:48;4.90;99.90
74488;DHT22;63019;51.080;13.642;2023-01-08T02:02:51;4.90;99.90
74488;DHT22;63019;51.080;13.642;2023-01-08T02:03:53;4.90;99.90
74488;DHT22;63019;51.080;13.642;2023-01-08T02:04:55;4.90;99.90
74488;DHT22;63019;51.080;13.642;2023-01-08T02:06:15;4.90;99.90
74488;DHT22;63019;51.080;13.642;2023-01-08T02:07:27;4.90;99.90
74488;DHT22;63019;51.080;13.642;2023-01-08T02:09:00;4.90;99.90
74488;DHT22;63019;51.080;13.642;2023-01-08T02:10:09;4.90;99.90
74488;DHT22;63019;51.080;13.642;2023-01-08T02:11:19;4.90;99.90
74488;DHT22;63019;51.080;13.642;2023-01-08T02:12:30;4.90;99.90
74488;DHT22;63019;51.080;13.642;2023-01-08T02:13:36;4.90;99.90
74488;DHT22;63019;51.080;13.642;2023-01-08T02:16:41;4.80;99.90
74488;DHT22;63019;51.080;13.642;2023-01-08T02:18:01;4.90;99.90
74488;DHT22;63019;51.080;13.642;2023-01-08T02:19:15;4.80;99.90
74488;DHT22;63019;51.080;13.642;2023-01-08T02:20:36;4.80;99.90
74488;DHT22;63019;51.080;13.642;2023-01-08T02:22:29;4.80;99.90
74488;DHT22;63019;51.080;13.642;2023-01-08T02:24:08;4.80;99.90
74488;DHT22;63019;51.080;13.642;2023-01-08T02:26:33;4.80;99.90
74488;DHT22;63019;51.080;13.642;2023-01-08T02:27:37;4.80;99.90
74488;DHT22;63019;51.080;13.642;2023-01-08T02:28:53;4.80;99.90
74488;DHT22;63019;51.080;13.642;2023-01-08T02:29:56;4.80;99.90
74488;DHT22;63019;51.080;13.642;2023-01-08T02:30:58;4.80;99.90
74488;DHT22;63019;51.080;13.642;2023-01-08T02:32:01;4.80;99.90
74488;DHT22;63019;51.080;13.642;2023-01-08T02:33:02;4.80;99.90
74488;DHT22;63019;51.080;13.642;2023-01-08T02:34:04;4.80;99.90
74488;DHT22;63019;51.080;13.642;2023-01-08T02:35:07;4.80;99.90
74488;DHT22;63019;51.080;13.642;2023-01-08T02:37:25;4.80;99.90
74488;DHT22;63019;51.080;13.642;2023-01-08T02:38:28;4.80;99.90
74488;DHT22;63019;51.080;13.642;2023-01-08T02:40:55;4.80;99.90
74488;DHT22;63019;51.080;13.642;2023-01-08T02:43:23;4.80;99.90
74488;DHT22;63019;51.080;13.642;2023-01-08T02:46:00;4.80;99.90
74488;DHT22;63019;51.080;13.642;2023-01-08T02:47:05;4.80;99.90
74488;DHT22;63019;51.080;13.642;2023-01-08T02:48:13;4.80;99.90
74488;DHT22;63019;51.080;13.642;2023-01-08T02:49:16;4.80;99.90
74488;DHT22;63019;51.080;13.642;2023-01-08T02:51:55;4.80;99.90
74488;DHT22;63019;51.080;13.642;2023-01-08T02:53:15;4.70;99.90
74488;DHT22;63019;51.080;13.642;2023-01-08T02:54:25;4.70;99.90
74488;DHT22;63019;51.080;13.642;2023-01-08T02:55:29;4.70;99.90
74488;DHT22;63019;51.080;13.642;2023-01-08T02:56:37;4.70;99.90
74488;DHT22;63019;51.080;13.642;2023-01-08T02:57:41;4.70;99.90
74488;DHT22;63019;51.080;13.642;2023-01-08T02:58:43;4.70;99.90
74488;DHT22;63019;51.080;13.642;2023-01-08T02:59:48;4.70;99.90
74488;DHT22;63019;51.080;13.642;2023-01-08T03:00:51;4.70;99.90
74488;DHT22;63019;51.080;13.642;2023-01-08T03:01:54;4.70;99.90
74488;DHT22;63019;51.080;13.642;2023-01-08T03:03:09;4.70;99.90
74488;DHT22;63019;51.080;13.642;2023-01-08T03:04:16;4.70;99.90
74488;DHT22;63019;51.080;13.642;2023-01-08T03:05:26;4.70;99.90
74488;DHT22;63019;51.080;13.642;2023-01-08T03:06:29;4.70;99.90
74488;DHT22;63019;51.080;13.642;2023-01-08T03:07:31;4.70;99.90
74488;DHT22;63019;51.080;13.642;2023-01-08T03:08:37;4.70;99.90
74488;DHT22;63019;51.080;13.642;2023-01-08T03:09:40;4.70;99.90
74488;DHT22;63019;51.080;13.642;2023-01-08T03:10:44;4.80;99.90
74488;DHT22;63019;51.080;13.642;2023-01-08T03:12:06;4.70;99.90
74488;DHT22;63019;51.080;13.642;2023-01-08T03:14:55;4.80;99.90
74488;DHT22;63019;51.080;13.642;2023-01-08T03:15:59;4.70;99.90
74488;DHT22;63019;51.080;13.642;2023-01-08T03:17:13;4.70;99.90
74488;DHT22;63019;51.080;13.642;2023-01-08T03:18:20;4.70;99.90
74488;DHT22;63019;51.080;13.642;2023-01-08T03:19:37;4.70;99.90
74488;DHT22;63019;51.080;13.642;2023-01-08T03:20:41;4.60;99.90
74488;DHT22;63019;51.080;13.642;2023-01-08T03:21:45;4.60;99.90
74488;DHT22;63019;51.080;13.642;2023-01-08T03:22:54;4.60;99.90
74488;DHT22;63019;51.080;13.642;2023-01-08T03:23:57;4.60;99.90
74488;DHT22;63019;51.080;13.642;2023-01-08T03:25:02;4.60;99.90
74488;DHT22;63019;51.080;13.642;2023-01-08T03:26:05;4.60;99.90
74488;DHT22;63019;51.080;13.642;2023-01-08T03:27:09;4.60;99.90
74488;DHT22;63019;51.080;13.642;2023-01-08T03:28:20;4.60;99.90
74488;DHT22;63019;51.080;13.642;2023-01-08T03:29:24;4.60;99.90
74488;DHT22;63019;51.080;13.642;2023-01-08T03:30:28;4.60;99.90
74488;DHT22;63019;51.080;13.642;2023-01-08T03:31:31;4.60;99.90
74488;DHT22;63019;51.080;13.642;2023-01-08T03:32:38;4.60;99.90
74488;DHT22;63019;51.080;13.642;2023-01-08T03:33:42;4.60;99.90
74488;DHT22;63019;51.080;13.642;2023-01-08T03:34:46;4.60;99.90
74488;DHT22;63019;51.080;13.642;2023-01-08T03:35:51;4.60;99.90
74488;DHT22;63019;51.080;13.642;2023-01-08T03:36:56;4.60;99.90
74488;DHT22;63019;51.080;13.642;2023-01-08T03:38:14;4.60;99.90
74488;DHT22;63019;51.080;13.642;2023-01-08T03:39:22;4.60;99.90
74488;DHT22;63019;51.080;13.642;2023-01-08T03:40:33;4.60;99.90
74488;DHT22;63019;51.080;13.642;2023-01-08T03:41:35;4.60;99.90
74488;DHT22;63019;51.080;13.642;2023-01-08T03:42:37;4.60;99.90
74488;DHT22;63019;51.080;13.642;2023-01-08T03:43:39;4.60;99.90
74488;DHT22;63019;51.080;13.642;2023-01-08T03:44:41;4.60;99.90
74488;DHT22;63019;51.080;13.642;2023-01-08T03:45:56;4.60;99.90
74488;DHT22;63019;51.080;13.642;2023-01-08T03:46:59;4.60;99.90
74488;DHT22;63019;51.080;13.642;2023-01-08T03:48:02;4.60;99.90
74488;DHT22;63019;51.080;13.642;2023-01-08T03:49:06;4.60;99.90
74488;DHT22;63019;51.080;13.642;2023-01-08T03:50:15;4.60;99.90
74488;DHT22;63019;51.080;13.642;2023-01-08T03:51:18;4.70;99.90
74488;DHT22;63019;51.080;13.642;2023-01-08T03:52:24;4.60;99.90
74488;DHT22;63019;51.080;13.642;2023-01-08T03:53:27;4.70;99.90
74488;DHT22;63019;51.080;13.642;2023-01-08T03:54:31;4.70;99.90
74488;DHT22;63019;51.080;13.642;2023-01-08T03:55:33;4.70;99.90
74488;DHT22;63019;51.080;13.642;2023-01-08T03:56:34;4.70;99.90
74488;DHT22;63019;51.080;13.642;2023-01-08T03:57:36;4.70;99.90
74488;DHT22;63019;51.080;13.642;2023-01-08T03:58:38;4.70;99.90
74488;DHT22;63019;51.080;13.642;2023-01-08T03:59:40;4.70;99.90
74488;DHT22;63019;51.080;13.642;2023-01-08T04:00:41;4.70;99.90
74488;DHT22;63019;51.080;13.642;2023-01-08T04:01:43;4.70;99.90
74488;DHT22;63019;51.080;13.642;2023-01-08T04:02:45;4.80;99.90
74488;DHT22;63019;51.080;13.642;2023-01-08T04:03:47;4.80;99.90
74488;DHT22;63019;51.080;13.642;2023-01-08T04:04:49;4.80;99.90
74488;DHT22;63019;51.080;13.642;2023-01-08T04:05:50;4.80;99.90
74488;DHT22;63019;51.080;13.642;2023-01-08T04:06:52;4.80;99.90
74488;DHT22;63019;51.080;13.642;2023-01-08T04:07:55;4.90;99.90
74488;DHT22;63019;51.080;13.642;2023-01-08T04:08:57;4.90;99.90
74488;DHT22;63019;51.080;13.642;2023-01-08T04:09:59;4.90;99.90
74488;DHT22;63019;51.080;13.642;2023-01-08T04:11:01;4.90;99.90
74488;DHT22;63019;51.080;13.642;2023-01-08T04:12:03;5.00;99.90
74488;DHT22;63019;51.080;13.642;2023-01-08T04:13:04;5.00;99.90
74488;DHT22;63019;51.080;13.642;2023-01-08T04:14:06;5.00;99.90
74488;DHT22;63019;51.080;13.642;2023-01-08T04:15:08;4.90;99.90
74488;DHT22;63019;51.080;13.642;2023-01-08T04:16:10;5.00;99.90
74488;DHT22;63019;51.080;13.642;2023-01-08T04:17:12;5.00;99.90
74488;DHT22;63019;51.080;13.642;2023-01-08T04:18:15;5.00;99.90
74488;DHT22;63019;51.080;13.642;2023-01-08T04:19:17;5.00;99.90
74488;DHT22;63019;51.080;13.642;2023-01-08T04:20:19;5.00;99.90
74488;DHT22;63019;51.080;13.642;2023-01-08T04:21:21;5.00;99.90
74488;DHT22;63019;51.080;13.642;2023-01-08T04:22:22;5.00;99.90
74488;DHT22;63019;51.080;13.642;2023-01-08T04:23:24;5.00;99.90
74488;DHT22;63019;51.080;13.642;2023-01-08T04:24:26;5.00;99.90
74488;DHT22;63019;51.080;13.642;2023-01-08T04:25:28;5.00;99.90
74488;DHT22;63019;51.080;13.642;2023-01-08T04:26:30;5.00;99.90
74488;DHT22;63019;51.080;13.642;2023-01-08T04:27:32;5.00;99.90
74488;DHT22;63019;51.080;13.642;2023-01-08T04:28:34;5.00;99.90
74488;DHT22;63019;51.080;13.642;2023-01-08T04:29:36;5.00;99.90
74488;DHT22;63019;51.080;13.642;2023-01-08T04:30:38;5.00;99.90
74488;DHT22;63019;51.080;13.642;2023-01-08T04:31:39;5.00;99.90
74488;DHT22;63019;51.080;13.642;2023-01-08T04:32:41;5.00;99.90
74488;DHT22;63019;51.080;13.642;2023-01-08T04:33:43;5.10;99.90
74488;DHT22;63019;51.080;13.642;2023-01-08T04:34:45;5.10;99.90
74488;DHT22;63019;51.080;13.642;2023-01-08T04:35:46;5.10;99.90
74488;DHT22;63019;51.080;13.642;2023-01-08T04:36:48;5.10;99.90
74488;DHT22;63019;51.080;13.642;2023-01-08T04:37:50;5.10;99.90
74488;DHT22;63019;51.080;13.642;2023-01-08T04:38:52;5.10;99.90
74488;DHT22;63019;51.080;13.642;2023-01-08T04:39:53;5.10;99.90
74488;DHT22;63019;51.080;13.642;2023-01-08T04:40:59;5.10;99.90
74488;DHT22;63019;51.080;13.642;2023-01-08T04:42:01;5.20;99.90
74488;DHT22;63019;51.080;13.642;2023-01-08T04:43:03;5.20;99.90
74488;DHT22;63019;51.080;13.642;2023-01-08T04:44:05;5.20;99.90
74488;DHT22;63019;51.080;13.642;2023-01-08T04:45:07;5.20;99.90
74488;DHT22;63019;51.080;13.642;2023-01-08T04:46:09;5.20;99.90
74488;DHT22;63019;51.080;13.642;2023-01-08T04:47:11;5.20;99.90
74488;DHT22;63019;51.080;13.642;2023-01-08T04:48:13;5.20;99.90
74488;DHT22;63019;51.080;13.642;2023-01-08T04:49:14;5.20;99.90
74488;DHT22;63019;51.080;13.642;2023-01-08T04:50:16;5.20;99.90
74488;DHT22;63019;51.080;13.642;2023-01-08T04:51:18;5.10;99.90
74488;DHT22;63019;51.080;13.642;2023-01-08T04:52:20;5.20;99.90
74488;DHT22;63019;51.080;13.642;2023-01-08T04:53:25;5.20;99.90
74488;DHT22;63019;51.080;13.642;2023-01-08T04:54:26;5.20;99.90
74488;DHT22;63019;51.080;13.642;2023-01-08T04:55:28;5.20;99.90
74488;DHT22;63019;51.080;13.642;2023-01-08T04:56:30;5.20;99.90
74488;DHT22;63019;51.080;13.642;2023-01-08T04:57:32;5.20;99.90
74488;DHT22;63019;51.080;13.642;2023-01-08T04:58:34;5.20;99.90
74488;DHT22;63019;51.080;13.642;2023-01-08T04:59:36;5.20;99.90
74488;DHT22;63019;51.080;13.642;2023-01-08T05:00:39;5.20;99.90
74488;DHT22;63019;51.080;13.642;2023-01-08T05:01:40;5.20;99.90
74488;DHT22;63019;51.080;13.642;2023-01-08T05:02:42;5.20;99.90
74488;DHT22;63019;51.080;13.642;2023-01-08T05:03:44;5.20;99.90
74488;DHT22;63019;51.080;13.642;2023-01-08T05:04:47;5.20;99.90
74488;DHT22;63019;51.080;13.642;2023-01-08T05:05:48;5.20;99.90
74488;DHT22;63019;51.080;13.642;2023-01-08T05:06:50;5.20;99.90
74488;DHT22;63019;51.080;13.642;2023-01-08T05:07:52;5.30;99.90
74488;DHT22;63019;51.080;13.642;2023-01-08T05:08:54;5.30;99.90
74488;DHT22;63019;51.080;13.642;2023-01-08T05:09:56;5.30;99.90
74488;DHT22;63019;51.080;13.642;2023-01-08T05:10:58;5.30;99.90
74488;DHT22;63019;51.080;13.642;2023-01-08T05:12:00;5.30;99.90
74488;DHT22;63019;51.080;13.642;2023-01-08T05:13:02;5.30;99.90
74488;DHT22;63019;51.080;13.642;2023-01-08T05:14:04;5.30;99.90
74488;DHT22;63019;51.080;13.642;2023-01-08T05:15:06;5.30;99.90
74488;DHT22;63019;51.080;13.642;2023-01-08T05:16:08;5.30;99.90
74488;DHT22;63019;51.080;13.642;2023-01-08T05:17:10;5.30;99.90
74488;DHT22;63019;51.080;13.642;2023-01-08T05:18:12;5.30;99.90
74488;DHT22;63019;51.080;13.642;2023-01-08T05:19:14;5.30;99.90
74488;DHT22;63019;51.080;13.642;2023-01-08T05:20:15;5.30;99.90
74488;DHT22;63019;51.080;13.642;2023-01-08T05:21:19;5.30;99.90
74488;DHT22;63019;51.080;13.642;2023-01-08T05:22:21;5.30;99.90
74488;DHT22;63019;51.080;13.642;2023-01-08T05:23:23;5.30;99.90
74488;DHT22;63019;51.080;13.642;2023-01-08T05:24:25;5.30;99.90
74488;DHT22;63019;51.080;13.642;2023-01-08T05:25:26;5.30;99.90
74488;DHT22;63019;51.080;13.642;2023-01-08T05:26:28;5.20;99.90
74488;DHT22;63019;51.080;13.642;2023-01-08T05:27:30;5.20;99.90
74488;DHT22;63019;51.080;13.642;2023-01-08T05:28:32;5.20;99.90
74488;DHT22;63019;51.080;13.642;2023-01-08T05:29:34;5.20;99.90
74488;DHT22;63019;51.080;13.642;2023-01-08T05:30:36;5.30;99.90
74488;DHT22;63019;51.080;13.642;2023-01-08T05:31:38;5.20;99.90
74488;DHT22;63019;51.080;13.642;2023-01-08T05:32:40;5.20;99.90
74488;DHT22;63019;51.080;13.642;2023-01-08T05:33:41;5.20;99.90
74488;DHT22;63019;51.080;13.642;2023-01-08T05:34:44;5.20;99.90
74488;DHT22;63019;51.080;13.642;2023-01-08T05:35:46;5.20;99.90
74488;DHT22;63019;51.080;13.642;2023-01-08T05:36:47;5.20;99.90
74488;DHT22;63019;51.080;13.642;2023-01-08T05:37:49;5.20;99.90
74488;DHT22;63019;51.080;13.642;2023-01-08T05:38:51;5.20;99.90
74488;DHT22;63019;51.080;13.642;2023-01-08T05:39:53;5.20;99.90
74488;DHT22;63019;51.080;13.642;2023-01-08T05:40:54;5.20;99.90
74488;DHT22;63019;51.080;13.642;2023-01-08T05:41:56;5.20;99.90
74488;DHT22;63019;51.080;13.642;2023-01-08T05:42:59;5.20;99.90
74488;DHT22;63019;51.080;13.642;2023-01-08T05:44:01;5.20;99.90
74488;DHT22;63019;51.080;13.642;2023-01-08T05:45:04;5.20;99.90
74488;DHT22;63019;51.080;13.642;2023-01-08T05:46:06;5.20;99.90
74488;DHT22;63019;51.080;13.642;2023-01-08T05:47:08;5.20;99.90
74488;DHT22;63019;51.080;13.642;2023-01-08T05:48:10;5.20;99.90
74488;DHT22;63019;51.080;13.642;2023-01-08T05:49:12;5.20;99.90
74488;DHT22;63019;51.080;13.642;2023-01-08T05:50:17;5.20;99.90
74488;DHT22;63019;51.080;13.642;2023-01-08T05:51:19;5.20;99.90
74488;DHT22;63019;51.080;13.642;2023-01-08T05:52:20;5.20;99.90
74488;DHT22;63019;51.080;13.642;2023-01-08T05:53:22;5.10;99.90
74488;DHT22;63019;51.080;13.642;2023-01-08T05:54:24;5.20;99.90
74488;DHT22;63019;51.080;13.642;2023-01-08T05:55:26;5.20;99.90
74488;DHT22;63019;51.080;13.642;2023-01-08T05:56:28;5.20;99.90
74488;DHT22;63019;51.080;13.642;2023-01-08T05:57:30;5.20;99.90
74488;DHT22;63019;51.080;13.642;2023-01-08T05:58:32;5.20;99.90
74488;DHT22;63019;51.080;13.642;2023-01-08T05:59:33;5.20;99.90
74488;DHT22;63019;51.080;13.642;2023-01-08T06:00:35;5.20;99.90
74488;DHT22;63019;51.080;13.642;2023-01-08T06:01:37;5.20;99.90
74488;DHT22;63019;51.080;13.642;2023-01-08T06:02:39;5.20;99.90
74488;DHT22;63019;51.080;13.642;2023-01-08T06:03:41;5.20;99.90
74488;DHT22;63019;51.080;13.642;2023-01-08T06:04:43;5.20;99.90
74488;DHT22;63019;51.080;13.642;2023-01-08T06:05:44;5.30;99.90
74488;DHT22;63019;51.080;13.642;2023-01-08T06:06:46;5.30;99.90
74488;DHT22;63019;51.080;13.642;2023-01-08T06:07:48;5.30;99.90
74488;DHT22;63019;51.080;13.642;2023-01-08T06:08:50;5.30;99.90
74488;DHT22;63019;51.080;13.642;2023-01-08T06:09:51;5.40;99.90
74488;DHT22;63019;51.080;13.642;2023-01-08T06:10:57;5.40;99.90
74488;DHT22;63019;51.080;13.642;2023-01-08T06:11:58;5.40;99.90
74488;DHT22;63019;51.080;13.642;2023-01-08T06:13:00;5.40;99.90
74488;DHT22;63019;51.080;13.642;2023-01-08T06:14:02;5.40;99.90
74488;DHT22;63019;51.080;13.642;2023-01-08T06:15:04;5.40;99.90
74488;DHT22;63019;51.080;13.642;2023-01-08T06:16:06;5.40;99.90
74488;DHT22;63019;51.080;13.642;2023-01-08T06:17:08;5.40;99.90
74488;DHT22;63019;51.080;13.642;2023-01-08T06:18:10;5.40;99.90
74488;DHT22;63019;51.080;13.642;2023-01-08T06:19:12;5.40;99.90
74488;DHT22;63019;51.080;13.642;2023-01-08T06:20:14;5.40;99.90
74488;DHT22;63019;51.080;13.642;2023-01-08T06:21:15;5.40;99.90
74488;DHT22;63019;51.080;13.642;2023-01-08T06:22:17;5.40;99.90
74488;DHT22;63019;51.080;13.642;2023-01-08T06:23:19;5.40;99.90
74488;DHT22;63019;51.080;13.642;2023-01-08T06:24:21;5.40;99.90
74488;DHT22;63019;51.080;13.642;2023-01-08T06:25:23;5.40;99.90
74488;DHT22;63019;51.080;13.642;2023-01-08T06:26:25;5.40;99.90
74488;DHT22;63019;51.080;13.642;2023-01-08T06:27:27;5.40;99.90
74488;DHT22;63019;51.080;13.642;2023-01-08T06:28:29;5.40;99.90
74488;DHT22;63019;51.080;13.642;2023-01-08T06:29:31;5.40;99.90
74488;DHT22;63019;51.080;13.642;2023-01-08T06:30:33;5.40;99.90
74488;DHT22;63019;51.080;13.642;2023-01-08T06:31:34;5.30;99.90
74488;DHT22;63019;51.080;13.642;2023-01-08T06:32:36;5.30;99.90
74488;DHT22;63019;51.080;13.642;2023-01-08T06:33:38;5.30;99.90
74488;DHT22;63019;51.080;13.642;2023-01-08T06:34:40;5.30;99.90
74488;DHT22;63019;51.080;13.642;2023-01-08T06:35:42;5.30;99.90
74488;DHT22;63019;51.080;13.642;2023-01-08T06:36:44;5.30;99.90
74488;DHT22;63019;51.080;13.642;2023-01-08T06:37:46;5.30;99.90
74488;DHT22;63019;51.080;13.642;2023-01-08T06:38:48;5.40;99.90
74488;DHT22;63019;51.080;13.642;2023-01-08T06:39:51;5.40;99.90
74488;DHT22;63019;51.080;13.642;2023-01-08T06:40:53;5.40;99.90
74488;DHT22;63019;51.080;13.642;2023-01-08T06:41:55;5.40;99.90
74488;DHT22;63019;51.080;13.642;2023-01-08T06:43:03;5.40;99.90
74488;DHT22;63019;51.080;13.642;2023-01-08T06:44:06;5.40;99.90
74488;DHT22;63019;51.080;13.642;2023-01-08T06:45:08;5.40;99.90
74488;DHT22;63019;51.080;13.642;2023-01-08T06:46:10;5.30;99.90
74488;DHT22;63019;51.080;13.642;2023-01-08T06:47:12;5.40;99.90
74488;DHT22;63019;51.080;13.642;2023-01-08T06:48:14;5.40;99.90
74488;DHT22;63019;51.080;13.642;2023-01-08T06:49:15;5.30;99.90
74488;DHT22;63019;51.080;13.642;2023-01-08T06:50:18;5.40;99.90
74488;DHT22;63019;51.080;13.642;2023-01-08T06:51:20;5.40;99.90
74488;DHT22;63019;51.080;13.642;2023-01-08T06:52:21;5.40;99.90
74488;DHT22;63019;51.080;13.642;2023-01-08T06:53:23;5.40;99.90